Time;durP1;ratioP1;P1;durP2;ratioP2;P2;SDS_P1;SDS_P2;PMS_P1;PMS_P2;Temp;Humidity;BMP_temperature;BMP_pressure;BME280_temperature;BME280_humidity;BME280_pressure;Samples;Min_cycle;Max_cycle;Signal;HPM_P1;HPM_P2
2022/04/28 00:02:28;;;;;;;;;;;;;;;10.65;66.47;101020.44;5034227;28;19975;-65
2022/04/28 00:05:18;;;;;;;;;;;;;;;10.65;66.50;101020.44;5036919;28;19943;-64
2022/04/28 00:08:03;;;;;;;;;;;;;;;10.65;66.75;101023.03;5050076;28;20339;-65
2022/04/28 00:10:49;;;;;;;;;;;;;;;10.64;66.63;101018.69;5037443;28;19951;-65
2022/04/28 00:13:39;;;;;;;;;;;;;;;10.62;66.66;101017.75;5036877;28;20293;-65
2022/04/28 00:16:30;;;;;;;;;;;;;;;10.62;66.50;101022.94;5036219;28;19945;-65
2022/04/28 00:19:18;;;;;;;;;;;;;;;10.62;66.33;101019.44;5035537;28;19927;-64
2022/04/28 00:22:08;;;;;;;;;;;;;;;10.59;66.61;101015.06;5050068;28;19970;-65
2022/04/28 00:24:58;;;;;;;;;;;;;;;10.59;66.38;101021.97;5036683;28;20407;-64
2022/04/28 00:27:44;;;;;;;;;;;;;;;10.57;66.50;101018.44;5035618;28;19959;-67
2022/04/28 00:30:34;;;;;;;;;;;;;;;10.57;66.47;101019.31;5036762;28;20014;-65
2022/04/28 00:33:21;;;;;;;;;;;;;;;10.56;66.29;101022.72;5050584;28;20454;-65
2022/04/28 00:36:05;;;;;;;;;;;;;;;10.57;66.50;101015.84;5049625;28;19931;-65
2022/04/28 00:38:57;;;;;;;;;;;;;;;10.57;66.58;101013.25;5036786;28;19928;-65
2022/04/28 00:41:49;;;;;;;;;;;;;;;10.56;66.64;101014.94;5049675;28;20042;-65
2022/04/28 00:44:39;;;;;;;;;;;;;;;10.57;66.13;101013.25;5035434;28;20028;-65
2022/04/28 00:50:38;;;;;;;;;;;;;;;10.55;66.49;101009.72;5015631;28;20395;-65
2022/04/28 00:53:24;;;;;;;;;;;;;;;10.54;66.36;101014.00;5035539;28;19927;-65
2022/04/28 00:56:11;;;;;;;;;;;;;;;10.53;66.61;101009.66;5036264;28;19928;-65
2022/04/28 00:58:55;;;;;;;;;;;;;;;10.54;66.12;101011.41;5035537;28;19932;-64
2022/04/28 01:01:39;;;;;;;;;;;;;;;10.52;66.61;101015.69;5035519;28;19968;-65
2022/04/28 01:04:23;;;;;;;;;;;;;;;10.51;66.51;101009.63;5035860;28;19928;-65
2022/04/28 01:07:12;;;;;;;;;;;;;;;10.51;66.37;101011.31;5036032;28;19975;-65
2022/04/28 01:10:02;;;;;;;;;;;;;;;10.52;66.47;101010.50;5036076;28;19928;-65
2022/04/28 01:12:52;;;;;;;;;;;;;;;10.55;66.21;101010.59;5034427;28;19944;-65
2022/04/28 01:15:54;;;;;;;;;;;;;;;10.56;66.38;101014.09;5048868;28;19928;-65
2022/04/28 01:18:39;;;;;;;;;;;;;;;10.57;66.18;101018.44;5034829;28;19968;-65
2022/04/28 01:21:28;;;;;;;;;;;;;;;10.59;66.23;101022.81;5035777;28;19927;-66
2022/04/28 01:24:15;;;;;;;;;;;;;;;10.59;66.61;101017.66;5048422;28;19960;-65
2022/04/28 01:27:00;;;;;;;;;;;;;;;10.60;66.43;101023.69;5035449;28;19967;-65
2022/04/28 01:29:47;;;;;;;;;;;;;;;10.60;66.54;101018.50;5034704;28;19928;-65
2022/04/28 01:32:39;;;;;;;;;;;;;;;10.58;66.23;101021.06;5035575;28;19928;-65
2022/04/28 01:35:28;;;;;;;;;;;;;;;10.57;66.13;101014.13;5035547;28;19928;-65
2022/04/28 01:38:17;;;;;;;;;;;;;;;10.56;66.19;101017.53;5048371;28;20008;-65
2022/04/28 01:41:08;;;;;;;;;;;;;;;10.55;66.14;101012.31;5048827;28;19927;-65
2022/04/28 01:44:01;;;;;;;;;;;;;;;10.56;66.22;101012.34;5035021;28;19964;-65
2022/04/28 01:46:51;;;;;;;;;;;;;;;10.56;66.55;101009.75;5048761;28;19931;-65
2022/04/28 01:49:37;;;;;;;;;;;;;;;10.55;66.58;101009.72;5035131;28;20412;-65
2022/04/28 01:55:31;;;;;;;;;;;;;;;10.51;66.50;100998.34;5034779;28;20495;-64
2022/04/28 01:58:21;;;;;;;;;;;;;;;10.47;66.46;101005.16;5034307;28;19932;-65
2022/04/28 02:01:08;;;;;;;;;;;;;;;10.47;66.55;101012.09;5048184;28;19992;-65
2022/04/28 02:03:55;;;;;;;;;;;;;;;10.46;66.59;100999.94;5048197;28;20031;-65
2022/04/28 02:06:44;;;;;;;;;;;;;;;10.46;66.56;101003.41;5034670;28;19997;-65
2022/04/28 02:09:31;;;;;;;;;;;;;;;10.47;66.23;101007.75;5048104;28;19971;-66
2022/04/28 02:12:37;;;;;;;;;;;;;;;10.47;66.51;101004.31;5034155;28;20300;-65
2022/04/28 02:15:20;;;;;;;;;;;;;;;10.46;66.34;101005.13;5048215;28;19927;-64
2022/04/28 02:18:04;;;;;;;;;;;;;;;10.46;66.25;101010.31;5034750;28;19976;-65
2022/04/28 02:20:51;;;;;;;;;;;;;;;10.47;66.35;101005.16;5034970;28;19928;-64
2022/04/28 02:23:37;;;;;;;;;;;;;;;10.45;66.30;101013.75;5047376;28;20406;-65
2022/04/28 02:26:22;;;;;;;;;;;;;;;10.46;66.53;101011.19;5034568;28;20283;-65
2022/04/28 02:29:08;;;;;;;;;;;;;;;10.44;66.35;101011.97;5033417;28;19931;-65
2022/04/28 02:31:56;;;;;;;;;;;;;;;10.43;66.49;101011.06;5033710;28;19928;-65
2022/04/28 02:34:42;;;;;;;;;;;;;;;10.45;66.38;101019.78;5033387;28;19975;-65
2022/04/28 02:37:32;;;;;;;;;;;;;;;10.46;66.50;101016.38;5034739;28;19944;-65
2022/04/28 02:40:22;;;;;;;;;;;;;;;10.46;66.54;101013.78;5048260;28;19964;-65
2022/04/28 02:43:09;;;;;;;;;;;;;;;10.47;66.21;101012.09;5033782;28;19927;-65
2022/04/28 02:45:53;;;;;;;;;;;;;;;10.47;66.56;101009.50;5034274;28;20425;-65
2022/04/28 02:48:37;;;;;;;;;;;;;;;10.47;66.48;101009.50;5034126;28;19927;-64
2022/04/28 02:51:24;;;;;;;;;;;;;;;10.46;66.57;101006.00;5033288;28;19928;-65
2022/04/28 02:54:17;;;;;;;;;;;;;;;10.43;66.12;101008.47;5033006;28;19971;-66
2022/04/28 02:57:07;;;;;;;;;;;;;;;10.41;66.55;101009.28;5033287;28;19927;-65
2022/04/28 03:00:01;;;;;;;;;;;;;;;10.36;66.16;101004.78;5047074;28;19927;-64
2022/04/28 03:02:45;;;;;;;;;;;;;;;10.35;66.53;101005.63;5047471;28;19975;-64
2022/04/28 03:05:32;;;;;;;;;;;;;;;10.33;66.47;101004.72;5033983;28;20028;-66
2022/04/28 03:11:41;;;;;;;;;;;;;;;10.34;66.57;101000.41;5033974;28;20340;-65
2022/04/28 03:14:30;;;;;;;;;;;;;;;10.31;66.58;101008.97;5047098;28;19932;-64
2022/04/28 03:17:20;;;;;;;;;;;;;;;10.31;66.22;101000.28;5046775;28;19975;-64
2022/04/28 03:20:05;;;;;;;;;;;;;;;10.31;66.60;101003.78;5046910;28;19967;-64
2022/04/28 03:22:53;;;;;;;;;;;;;;;10.29;66.61;101007.13;5033733;28;19928;-64
2022/04/28 03:25:43;;;;;;;;;;;;;;;10.29;66.60;101010.63;5047183;28;20284;-64
2022/04/28 03:28:34;;;;;;;;;;;;;;;10.28;66.16;101014.03;5046839;28;20051;-64
2022/04/28 03:31:26;;;;;;;;;;;;;;;10.28;66.37;101019.22;5046629;28;19974;-64
2022/04/28 03:34:13;;;;;;;;;;;;;;;10.27;66.56;101017.47;5033107;28;20407;-65
2022/04/28 03:36:57;;;;;;;;;;;;;;;10.27;66.44;101021.78;5036102;28;19927;-64
2022/04/28 03:39:44;;;;;;;;;;;;;;;10.26;66.58;101026.06;5037737;28;20020;-64
2022/04/28 03:42:33;;;;;;;;;;;;;;;10.26;66.52;101023.47;5036468;28;19952;-65
2022/04/28 03:45:24;;;;;;;;;;;;;;;10.25;66.48;101021.69;5050544;28;19928;-65
2022/04/28 03:48:17;;;;;;;;;;;;;;;10.24;66.51;101022.53;5050466;28;19928;-65
2022/04/28 03:51:04;;;;;;;;;;;;;;;10.21;66.71;101028.50;5050684;28;19929;-65
2022/04/28 03:53:59;;;;;;;;;;;;;;;10.24;66.48;101029.44;5050642;28;19982;-66
2022/04/28 03:56:49;;;;;;;;;;;;;;;10.24;66.37;101032.91;5050828;28;20011;-65
2022/04/28 03:59:39;;;;;;;;;;;;;;;10.24;66.40;101029.44;5036381;28;19971;-65
2022/04/28 04:02:26;;;;;;;;;;;;;;;10.24;66.59;101022.53;5037149;28;19928;-64
2022/04/28 04:05:13;;;;;;;;;;;;;;;10.23;66.67;101031.13;5037179;28;19927;-65
2022/04/28 04:07:59;;;;;;;;;;;;;;;10.21;66.58;101028.50;5036983;28;20288;-65
2022/04/28 04:10:46;;;;;;;;;;;;;;;10.20;66.37;101029.34;5050742;28;19944;-65
2022/04/28 04:13:33;;;;;;;;;;;;;;;10.20;66.35;101029.34;5036400;28;20387;-65
2022/04/28 04:16:25;;;;;;;;;;;;;;;10.23;66.62;101022.50;5036455;28;19971;-64
2022/04/28 04:19:10;;;;;;;;;;;;;;;10.23;66.33;101027.69;5050332;28;19928;-65
2022/04/28 04:21:58;;;;;;;;;;;;;;;10.23;66.53;101027.69;5036998;28;20283;-65
2022/04/28 04:24:51;;;;;;;;;;;;;;;10.20;66.37;101026.75;5049952;28;19929;-65
2022/04/28 04:27:35;;;;;;;;;;;;;;;10.19;66.18;101024.97;5035999;28;20087;-65
2022/04/28 04:33:28;;;;;;;;;;;;;;;10.16;66.46;101034.38;5036290;28;19971;-64
2022/04/28 04:36:14;;;;;;;;;;;;;;;10.14;66.25;101029.13;5035265;28;19967;-65
2022/04/28 04:39:01;;;;;;;;;;;;;;;10.12;66.62;101032.50;5035734;28;19967;-65
2022/04/28 04:41:51;;;;;;;;;;;;;;;10.10;66.52;101031.56;5036121;28;20399;-65
2022/04/28 04:44:41;;;;;;;;;;;;;;;10.06;66.34;101034.03;5036216;28;20020;-64
2022/04/28 04:47:33;;;;;;;;;;;;;;;10.05;66.53;101039.19;5035796;28;19927;-65
2022/04/28 04:50:26;;;;;;;;;;;;;;;10.02;66.71;101037.38;5049747;28;19927;-65
2022/04/28 04:53:10;;;;;;;;;;;;;;;10.01;66.32;101042.47;5049332;28;20429;-66
2022/04/28 04:55:54;;;;;;;;;;;;;;;10.00;66.58;101043.31;5036505;28;19929;-65
2022/04/28 04:58:41;;;;;;;;;;;;;;;10.00;66.60;101048.47;5049138;28;20308;-65
2022/04/28 05:01:25;;;;;;;;;;;;;;;10.00;66.66;101051.97;5034852;28;19971;-65
2022/04/28 05:04:14;;;;;;;;;;;;;;;9.98;66.62;101050.13;5035785;28;20446;-65
2022/04/28 05:07:01;;;;;;;;;;;;;;;9.98;66.74;101048.44;5035230;28;20398;-65
2022/04/28 05:09:48;;;;;;;;;;;;;;;9.99;66.41;101052.81;5035989;28;19978;-65
2022/04/28 05:12:35;;;;;;;;;;;;;;;9.99;66.47;101054.50;5035876;28;19928;-65
2022/04/28 05:15:26;;;;;;;;;;;;;;;9.98;66.37;101055.31;5035056;28;19992;-65
2022/04/28 05:18:17;;;;;;;;;;;;;;;9.98;66.54;101061.41;5035153;28;20020;-64
2022/04/28 05:21:01;;;;;;;;;;;;;;;9.98;66.56;101058.81;5049110;28;20419;-65
2022/04/28 05:23:44;;;;;;;;;;;;;;;9.96;66.53;101063.03;5035515;28;19928;-65
2022/04/28 05:26:34;;;;;;;;;;;;;;;9.97;66.64;101071.69;5035625;28;20426;-64
2022/04/28 05:29:18;;;;;;;;;;;;;;;9.96;66.46;101073.41;5035036;28;20280;-64
2022/04/28 05:32:05;;;;;;;;;;;;;;;9.95;66.68;101073.38;5035578;28;19974;-64
2022/04/28 05:34:58;;;;;;;;;;;;;;;9.95;66.65;101078.53;5035160;28;19944;-65
2022/04/28 05:37:46;;;;;;;;;;;;;;;9.95;66.45;101081.13;5048471;28;19928;-64
2022/04/28 05:40:32;;;;;;;;;;;;;;;9.95;66.56;101089.78;5034400;28;20442;-64
2022/04/28 05:46:30;;;;;;;;;;;;;;;9.95;66.73;101096.69;5035563;28;20014;-64
2022/04/28 05:49:14;;;;;;;;;;;;;;;9.93;66.57;101087.97;5034560;28;20063;-65
2022/04/28 05:52:07;;;;;;;;;;;;;;;9.90;66.25;101091.31;5035045;28;19929;-65
2022/04/28 05:54:59;;;;;;;;;;;;;;;9.94;66.65;101103.53;5034157;28;19947;-65
2022/04/28 05:57:52;;;;;;;;;;;;;;;9.94;66.76;101102.69;5048120;28;19983;-65
2022/04/28 06:00:42;;;;;;;;;;;;;;;9.94;66.79;101100.09;5034546;28;19952;-64
2022/04/28 06:03:35;;;;;;;;;;;;;;;9.93;66.81;101099.19;5047797;28;19971;-64
2022/04/28 06:06:21;;;;;;;;;;;;;;;9.95;66.41;101101.84;5034490;28;19971;-65
2022/04/28 06:09:11;;;;;;;;;;;;;;;9.93;66.75;101108.69;5047747;28;20026;-64
2022/04/28 06:11:55;;;;;;;;;;;;;;;9.93;66.66;101114.72;5048188;28;20012;-65
2022/04/28 06:14:44;;;;;;;;;;;;;;;9.94;66.65;101116.50;5034410;28;19927;-64
2022/04/28 06:17:31;;;;;;;;;;;;;;;9.93;66.33;101113.84;5047824;28;19975;-64
2022/04/28 06:20:23;;;;;;;;;;;;;;;9.93;66.78;101113.84;5048406;28;19932;-65
2022/04/28 06:23:13;;;;;;;;;;;;;;;9.93;66.74;101111.28;5034839;28;20450;-66
2022/04/28 06:26:06;;;;;;;;;;;;;;;9.91;66.61;101121.56;5048498;28;19928;-65
2022/04/28 06:28:58;;;;;;;;;;;;;;;9.90;66.59;101123.28;5034067;28;20415;-65
2022/04/28 06:31:50;;;;;;;;;;;;;;;9.92;66.55;101123.31;5034768;28;20396;-65
2022/04/28 06:34:41;;;;;;;;;;;;;;;9.91;66.45;101118.97;5047816;28;19928;-65
2022/04/28 06:37:25;;;;;;;;;;;;;;;9.93;66.29;101121.63;5047818;28;19928;-65
2022/04/28 06:40:14;;;;;;;;;;;;;;;9.93;66.69;101135.44;5034650;28;19974;-65
2022/04/28 06:43:03;;;;;;;;;;;;;;;9.94;66.80;101138.94;5033562;28;19928;-65
2022/04/28 06:46:38;;;;;;;;;;;;;;;9.94;66.72;101138.94;5048011;28;19967;-64
2022/04/28 06:49:11;;;;;;;;;;;;;;;9.95;66.75;101143.28;5033068;28;19983;-65
2022/04/28 06:52:00;;;;;;;;;;;;;;;9.96;66.65;101147.63;5033738;28;20431;-65
2022/04/28 06:54:50;;;;;;;;;;;;;;;9.94;66.60;101149.28;5033441;28;19972;-64
2022/04/28 06:57:39;;;;;;;;;;;;;;;9.94;66.42;101152.75;5033149;28;19944;-65
2022/04/28 07:00:24;;;;;;;;;;;;;;;9.95;66.64;101157.09;5033425;28;20063;-65
2022/04/28 07:03:07;;;;;;;;;;;;;;;9.96;66.46;101161.47;5034215;28;19975;-64
2022/04/28 07:06:00;;;;;;;;;;;;;;;9.95;66.25;101159.69;5033947;28;19928;-64
2022/04/28 07:08:53;;;;;;;;;;;;;;;9.97;66.68;101163.22;5033802;28;19928;-64
2022/04/28 07:11:45;;;;;;;;;;;;;;;9.98;66.78;101167.56;5032358;28;19948;-65
2022/04/28 07:14:38;;;;;;;;;;;;;;;9.98;66.37;101170.16;5032922;28;20377;-65
2022/04/28 07:17:27;;;;;;;;;;;;;;;9.98;66.63;101164.09;5033727;28;19944;-65
2022/04/28 07:20:17;;;;;;;;;;;;;;;9.99;66.19;101173.63;5047121;28;19928;-65
2022/04/28 07:23:06;;;;;;;;;;;;;;;10.03;66.45;101175.50;5033020;28;19971;-65
2022/04/28 07:25:50;;;;;;;;;;;;;;;10.03;66.59;101167.75;5032581;28;20399;-65
2022/04/28 07:28:34;;;;;;;;;;;;;;;10.03;66.50;101170.31;5046880;28;20403;-66
2022/04/28 07:31:27;;;;;;;;;;;;;;;10.04;66.62;101178.13;5033832;28;19928;-65
2022/04/28 07:34:19;;;;;;;;;;;;;;;10.02;66.55;101182.41;5046282;28;19983;-66
2022/04/28 07:37:08;;;;;;;;;;;;;;;10.03;66.39;101186.78;5033397;28;19975;-64
2022/04/28 07:39:58;;;;;;;;;;;;;;;10.05;66.50;101185.09;5032618;28;19970;-65
2022/04/28 07:42:50;;;;;;;;;;;;;;;10.05;66.42;101186.81;5046568;28;19928;-64
2022/04/28 07:45:42;;;;;;;;;;;;;;;10.06;66.60;101191.16;5046756;28;19928;-65
2022/04/28 07:48:32;;;;;;;;;;;;;;;10.07;66.43;101198.13;5047207;28;19932;-65
2022/04/28 07:51:22;;;;;;;;;;;;;;;10.08;66.56;101199.88;5046570;28;19975;-65
2022/04/28 07:54:06;;;;;;;;;;;;;;;10.11;66.59;101200.00;5046847;28;19937;-65
2022/04/28 07:56:49;;;;;;;;;;;;;;;10.13;66.62;101207.81;5033722;28;19928;-65
2022/04/28 07:59:37;;;;;;;;;;;;;;;10.13;66.56;101205.22;5033527;28;19929;-65
2022/04/28 08:02:29;;;;;;;;;;;;;;;10.12;66.70;101212.09;5033299;28;19928;-65
2022/04/28 08:05:24;;;;;;;;;;;;;;;10.13;66.67;101213.00;5032115;28;19944;-65
2022/04/28 08:08:14;;;;;;;;;;;;;;;10.14;66.71;101219.94;5032390;28;19928;-65
2022/04/28 08:11:03;;;;;;;;;;;;;;;10.15;66.46;101222.56;5032348;28;19979;-65
2022/04/28 08:13:53;;;;;;;;;;;;;;;10.16;66.69;101215.69;5032705;28;19967;-65
2022/04/28 08:16:46;;;;;;;;;;;;;;;10.18;66.58;101222.69;5046228;28;19928;-65
2022/04/28 08:19:33;;;;;;;;;;;;;;;10.19;66.80;101224.47;5046659;28;20381;-65
2022/04/28 08:22:20;;;;;;;;;;;;;;;10.21;66.59;101230.59;5032650;28;19928;-65
2022/04/28 08:25:10;;;;;;;;;;;;;;;10.24;66.78;101231.53;5036797;28;19927;-65
2022/04/28 08:27:54;;;;;;;;;;;;;;;10.24;66.44;101231.53;5050125;28;20010;-65
2022/04/28 08:30:38;;;;;;;;;;;;;;;10.25;66.35;101235.88;5036359;28;19928;-67
2022/04/28 08:33:27;;;;;;;;;;;;;;;10.26;66.65;101235.06;5049921;28;19928;-65
2022/04/28 08:36:20;;;;;;;;;;;;;;;10.27;66.68;101227.31;5050174;28;19928;-65
2022/04/28 08:39:07;;;;;;;;;;;;;;;10.29;66.74;101230.84;5036155;28;20422;-65
2022/04/28 08:42:00;;;;;;;;;;;;;;;10.29;66.69;101236.03;5036011;28;19928;-65
2022/04/28 08:44:52;;;;;;;;;;;;;;;10.30;66.58;101229.13;5036115;28;19928;-66
2022/04/28 08:47:42;;;;;;;;;;;;;;;10.31;66.43;101233.50;5036740;28;20071;-65
2022/04/28 08:50:28;;;;;;;;;;;;;;;10.34;66.55;101233.63;5049530;28;19932;-65
2022/04/28 08:53:12;;;;;;;;;;;;;;;10.36;66.55;101239.72;5035771;28;19967;-65
2022/04/28 08:55:59;;;;;;;;;;;;;;;10.41;66.71;101239.94;5035902;28;19974;-65
2022/04/28 08:58:46;;;;;;;;;;;;;;;10.39;66.74;101239.88;5049570;28;19948;-65
2022/04/28 09:01:36;;;;;;;;;;;;;;;10.44;66.69;101246.09;5049467;28;19929;-65
2022/04/28 09:04:22;;;;;;;;;;;;;;;10.45;66.65;101241.81;5035319;28;19975;-65
2022/04/28 09:07:14;;;;;;;;;;;;;;;10.45;66.50;101240.09;5049581;28;19931;-66
2022/04/28 09:10:05;;;;;;;;;;;;;;;10.45;66.34;101247.00;5049051;28;20296;-65
2022/04/28 09:16:27;;;;;;;;;;;;;;;10.51;66.50;101249.78;5035497;28;19928;-65
2022/04/28 09:19:34;;;;;;;;;;;;;;;10.50;66.60;101241.13;5034942;28;19944;-65
2022/04/28 09:22:28;;;;;;;;;;;;;;;10.54;66.63;101231.75;5033835;28;20029;-65
2022/04/28 09:25:18;;;;;;;;;;;;;;;10.57;66.72;101234.47;5035284;28;19928;-65
2022/04/28 09:28:08;;;;;;;;;;;;;;;10.60;66.19;101237.16;5034760;28;19975;-65
2022/04/28 09:30:57;;;;;;;;;;;;;;;10.62;66.19;101239.78;5035597;28;20284;-65
2022/04/28 09:33:46;;;;;;;;;;;;;;;10.65;66.31;101230.44;5034625;28;19971;-66
2022/04/28 09:36:30;;;;;;;;;;;;;;;10.64;66.71;101236.44;5034374;28;19928;-65
2022/04/28 09:42:35;;;;;;;;;;;;;;;10.68;66.21;101229.66;5034984;28;19974;-65
2022/04/28 09:45:25;;;;;;;;;;;;;;;10.72;66.26;101231.53;5047935;28;19975;-65
2022/04/28 09:48:10;;;;;;;;;;;;;;;10.73;66.12;101237.59;5034147;28;19971;-66
2022/04/28 09:51:04;;;;;;;;;;;;;;;10.74;66.35;101224.69;5035018;28;20069;-66
2022/04/28 09:53:51;;;;;;;;;;;;;;;10.77;66.31;101236.88;5035460;28;19928;-66
2022/04/28 09:56:40;;;;;;;;;;;;;;;10.78;66.03;101226.53;5034461;28;20386;-65
2022/04/28 09:59:28;;;;;;;;;;;;;;;10.82;66.37;101224.94;5034542;28;19928;-65
2022/04/28 10:02:15;;;;;;;;;;;;;;;10.85;66.04;101222.44;5033679;28;19966;-65
2022/04/28 10:05:05;;;;;;;;;;;;;;;10.86;66.23;101224.19;5034552;28;19975;-67
2022/04/28 10:07:50;;;;;;;;;;;;;;;10.86;66.20;101223.34;5048197;28;19928;-66
2022/04/28 10:10:42;;;;;;;;;;;;;;;10.88;65.78;101219.94;5034841;28;19928;-66
2022/04/28 10:13:28;;;;;;;;;;;;;;;10.90;65.96;101231.25;5034458;28;19975;-66
2022/04/28 10:16:18;;;;;;;;;;;;;;;10.91;65.94;101229.53;5034775;28;20024;-66
2022/04/28 10:19:11;;;;;;;;;;;;;;;10.92;65.90;101218.34;5034093;28;20074;-65
2022/04/28 10:22:05;;;;;;;;;;;;;;;10.93;65.89;101225.28;5034623;28;20391;-66
2022/04/28 10:34:13;;;;;;;;;;;;;;;10.99;65.81;101220.31;5034032;28;19971;-66
2022/04/28 10:37:06;;;;;;;;;;;;;;;10.99;66.05;101225.50;5033671;28;19984;-66
2022/04/28 10:39:57;;;;;;;;;;;;;;;11.02;66.10;101219.53;5033377;28;19967;-67
2022/04/28 10:42:47;;;;;;;;;;;;;;;11.01;65.81;101221.25;5033934;28;19967;-66
2022/04/28 10:45:44;;;;;;;;;;;;;;;11.01;65.81;101218.66;5046798;28;20014;-67
2022/04/28 10:48:38;;;;;;;;;;;;;;;11.01;65.92;101217.75;5033050;28;19929;-66
2022/04/28 10:51:30;;;;;;;;;;;;;;;11.01;65.97;101218.66;5033967;28;19967;-66
2022/04/28 10:54:23;;;;;;;;;;;;;;;11.03;65.69;101211.81;5033251;28;19963;-66
2022/04/28 10:57:07;;;;;;;;;;;;;;;11.05;65.67;101211.84;5033229;28;20304;-66
2022/04/28 10:59:52;;;;;;;;;;;;;;;11.06;65.83;101211.03;5047111;28;19975;-66
2022/04/28 11:02:37;;;;;;;;;;;;;;;11.05;65.71;101201.47;5047131;28;19967;-66
2022/04/28 11:05:28;;;;;;;;;;;;;;;11.06;65.83;101204.09;5047149;28;20475;-66
2022/04/28 11:08:22;;;;;;;;;;;;;;;11.06;65.73;101208.44;5012220;28;20166;-66
2022/04/28 11:11:15;;;;;;;;;;;;;;;11.05;65.73;101204.06;5027078;28;20348;-66
2022/04/28 11:14:08;;;;;;;;;;;;;;;11.06;65.79;101201.50;5014059;28;20284;-66
2022/04/28 11:16:56;;;;;;;;;;;;;;;11.10;65.61;101203.38;5013704;28;19929;-65
2022/04/28 11:19:40;;;;;;;;;;;;;;;11.11;65.57;101205.16;5013118;28;19956;-66
2022/04/28 11:22:30;;;;;;;;;;;;;;;11.10;65.81;101203.38;5013920;28;20427;-68
2022/04/28 11:25:16;;;;;;;;;;;;;;;11.10;65.77;101205.97;5013069;28;19976;-66
2022/04/28 11:28:02;;;;;;;;;;;;;;;11.13;65.51;101207.81;5013009;28;20015;-66
2022/04/28 11:30:52;;;;;;;;;;;;;;;11.12;65.62;101204.31;5012890;28;20400;-66
2022/04/28 11:33:42;;;;;;;;;;;;;;;11.12;65.93;101198.25;5013535;28;19979;-67
2022/04/28 11:36:28;;;;;;;;;;;;;;;11.13;65.69;101194.84;5013327;28;19967;-66
2022/04/28 11:39:15;;;;;;;;;;;;;;;11.15;65.88;101190.53;5012565;28;19975;-66
2022/04/28 11:42:10;;;;;;;;;;;;;;;11.14;66.11;101191.38;5012843;28;19928;-66
2022/04/28 11:45:00;;;;;;;;;;;;;;;11.16;65.65;101194.03;5013544;28;19928;-66
2022/04/28 11:47:46;;;;;;;;;;;;;;;11.20;65.49;101204.56;5013782;28;19928;-67
2022/04/28 11:50:35;;;;;;;;;;;;;;;11.20;65.93;101201.09;5013758;28;19928;-66
2022/04/28 11:53:19;;;;;;;;;;;;;;;11.20;65.45;101195.91;5013062;28;19928;-66
2022/04/28 11:56:12;;;;;;;;;;;;;;;11.21;65.33;101190.75;5026714;28;20071;-67
2022/04/28 11:58:58;;;;;;;;;;;;;;;11.21;65.89;101189.88;5017181;28;19980;-65
2022/04/28 12:01:45;;;;;;;;;;;;;;;11.22;65.49;101189.94;5016818;28;19929;-66
2022/04/28 12:04:32;;;;;;;;;;;;;;;11.22;65.78;101195.13;5016710;28;19928;-66
2022/04/28 12:07:26;;;;;;;;;;;;;;;11.23;65.86;101186.50;5017439;28;19997;-67
2022/04/28 12:19:49;;;;;;;;;;;;;;;11.26;65.50;101183.09;5017674;28;20496;-66
2022/04/28 12:22:39;;;;;;;;;;;;;;;11.25;65.86;101187.44;5030184;28;19928;-67
2022/04/28 12:25:25;;;;;;;;;;;;;;;11.24;65.77;101180.47;5016105;28;19968;-65
2022/04/28 12:28:10;;;;;;;;;;;;;;;11.25;65.85;101179.66;5016666;28;19928;-66
2022/04/28 12:31:03;;;;;;;;;;;;;;;11.25;65.62;101178.75;5015891;28;20292;-66
2022/04/28 12:33:50;;;;;;;;;;;;;;;11.25;65.63;101177.06;5016370;28;20024;-67
2022/04/28 12:36:50;;;;;;;;;;;;;;;11.27;65.65;101174.50;5015722;28;20053;-66
2022/04/28 12:39:59;;;;;;;;;;;;;;;11.27;65.47;101172.78;5015692;28;20447;-66
2022/04/28 12:42:49;;;;;;;;;;;;;;;11.29;65.56;101174.56;5016075;28;19975;-67
2022/04/28 12:45:42;;;;;;;;;;;;;;;11.30;65.77;101168.50;5016821;28;19928;-66
2022/04/28 12:48:30;;;;;;;;;;;;;;;11.30;65.65;101166.81;5016915;28;19976;-66
2022/04/28 12:51:14;;;;;;;;;;;;;;;11.31;65.24;101163.38;5015943;28;19928;-66
2022/04/28 12:54:13;;;;;;;;;;;;;;;11.31;65.75;101162.47;5029468;28;20020;-66
2022/04/28 12:57:00;;;;;;;;;;;;;;;11.31;65.70;101163.38;5016740;28;19929;-67
2022/04/28 12:59:50;;;;;;;;;;;;;;;11.31;65.69;101162.47;5029336;28;20408;-66
2022/04/28 13:02:44;;;;;;;;;;;;;;;11.30;65.35;101159.03;5014958;28;19928;-66
2022/04/28 13:05:33;;;;;;;;;;;;;;;11.31;65.56;101155.59;5015258;28;20339;-66
2022/04/28 13:08:23;;;;;;;;;;;;;;;11.31;65.83;101154.69;5014880;28;19972;-66
2022/04/28 13:11:13;;;;;;;;;;;;;;;11.32;65.79;101154.75;5015936;28;19944;-67
2022/04/28 13:13:57;;;;;;;;;;;;;;;11.32;65.42;101146.97;5015484;28;19933;-66
2022/04/28 13:16:41;;;;;;;;;;;;;;;11.33;65.30;101148.75;5029494;28;19933;-66
2022/04/28 13:19:25;;;;;;;;;;;;;;;11.35;65.18;101141.00;5015658;28;19928;-66
2022/04/28 13:22:15;;;;;;;;;;;;;;;11.36;65.50;101146.25;5029457;28;19928;-66
2022/04/28 13:25:05;;;;;;;;;;;;;;;11.36;65.54;101143.66;5014680;28;19976;-66
2022/04/28 13:27:49;;;;;;;;;;;;;;;11.38;65.42;101143.69;5028830;28;20356;-67
2022/04/28 13:30:38;;;;;;;;;;;;;;;11.39;65.54;101133.34;5016112;28;20027;-66
2022/04/28 13:33:22;;;;;;;;;;;;;;;11.42;65.55;101129.97;5015198;28;20391;-66
2022/04/28 13:36:12;;;;;;;;;;;;;;;11.41;65.39;101129.06;5029171;28;19972;-67
2022/04/28 13:39:02;;;;;;;;;;;;;;;11.45;64.96;101127.44;5014844;28;20431;-66
2022/04/28 13:41:46;;;;;;;;;;;;;;;11.44;65.00;101123.13;5014675;28;19988;-66
2022/04/28 13:44:32;;;;;;;;;;;;;;;11.46;65.01;101123.16;5028322;28;20402;-66
2022/04/28 13:47:22;;;;;;;;;;;;;;;11.47;65.14;101124.91;5015171;28;19932;-65
2022/04/28 13:50:12;;;;;;;;;;;;;;;11.46;65.39;101118.81;5015795;28;19928;-66
2022/04/28 13:52:56;;;;;;;;;;;;;;;11.45;65.37;101119.66;5029091;28;20011;-66
2022/04/28 13:55:48;;;;;;;;;;;;;;;11.46;64.96;101118.81;5015482;28;20438;-66
2022/04/28 13:58:52;;;;;;;;;;;;;;;11.45;64.97;101111.00;5014666;28;19979;-65
2022/04/28 14:01:39;;;;;;;;;;;;;;;11.43;65.48;101109.25;5014159;28;19983;-65
2022/04/28 14:04:28;;;;;;;;;;;;;;;11.45;65.10;101108.41;5014126;28;19927;-66
2022/04/28 14:07:18;;;;;;;;;;;;;;;11.46;65.32;101111.03;5014110;28;20067;-66
2022/04/28 14:10:05;;;;;;;;;;;;;;;11.46;65.30;101108.44;5014219;28;19928;-66
2022/04/28 14:12:58;;;;;;;;;;;;;;;11.46;65.24;101104.97;5015022;28;19944;-66
2022/04/28 14:15:44;;;;;;;;;;;;;;;11.48;65.21;101098.13;5013969;28;19967;-65
2022/04/28 14:18:31;;;;;;;;;;;;;;;11.48;65.17;101100.72;5014356;28;19929;-66
2022/04/28 14:21:20;;;;;;;;;;;;;;;11.47;65.39;101091.16;5013326;28;19976;-66
2022/04/28 14:24:10;;;;;;;;;;;;;;;11.50;65.33;101091.25;5013625;28;20407;-66
2022/04/28 14:26:59;;;;;;;;;;;;;;;11.48;65.43;101091.19;5013717;28;19944;-66
2022/04/28 14:29:43;;;;;;;;;;;;;;;11.51;65.27;101098.22;5014150;28;19928;-66
2022/04/28 14:32:42;;;;;;;;;;;;;;;11.53;65.16;101094.81;5014038;28;20028;-65
2022/04/28 14:35:26;;;;;;;;;;;;;;;11.52;65.17;101097.38;5013992;28;19929;-65
2022/04/28 14:38:18;;;;;;;;;;;;;;;11.54;65.17;101090.50;5028021;28;20076;-66
2022/04/28 14:41:08;;;;;;;;;;;;;;;11.53;65.29;101093.91;5014038;28;20029;-66
2022/04/28 14:44:05;;;;;;;;;;;;;;;11.56;65.14;101092.31;5013476;28;20300;-67
2022/04/28 14:46:52;;;;;;;;;;;;;;;11.56;65.04;101099.22;5014038;28;20431;-66
2022/04/28 14:52:50;;;;;;;;;;;;;;;11.55;65.25;101090.56;5014686;28;19945;-66
2022/04/28 14:55:40;;;;;;;;;;;;;;;11.57;64.89;101091.47;5013019;28;19960;-66
2022/04/28 14:58:29;;;;;;;;;;;;;;;11.56;65.08;101081.94;5013439;28;19971;-66
2022/04/28 15:01:17;;;;;;;;;;;;;;;11.55;65.28;101085.38;5014199;28;19972;-65
2022/04/28 15:04:00;;;;;;;;;;;;;;;11.57;65.12;101091.47;5027036;28;19976;-66
2022/04/28 15:06:50;;;;;;;;;;;;;;;11.58;65.33;101092.34;5014349;28;19928;-66
2022/04/28 15:09:34;;;;;;;;;;;;;;;11.58;65.18;101088.06;5013086;28;19944;-65
2022/04/28 15:12:23;;;;;;;;;;;;;;;11.58;64.97;101098.44;5013766;28;19974;-65
2022/04/28 15:15:18;;;;;;;;;;;;;;;11.61;65.03;101091.53;5027307;28;19960;-66